sensor_id;sensor_type;location;lat;lon;timestamp;P1;durP1;ratioP1;P2;durP2;ratioP2
39242;SDS011;29823;47.404;8.566;2022-08-23T00:02:25;5.53;;;3.83;;
39242;SDS011;29823;47.404;8.566;2022-08-23T00:04:54;8.15;;;4.25;;
39242;SDS011;29823;47.404;8.566;2022-08-23T00:07:34;5.50;;;4.38;;
39242;SDS011;29823;47.404;8.566;2022-08-23T00:10:06;9.15;;;4.70;;
39242;SDS011;29823;47.404;8.566;2022-08-23T00:12:35;10.57;;;5.03;;
39242;SDS011;29823;47.404;8.566;2022-08-23T00:15:04;6.97;;;4.20;;
39242;SDS011;29823;47.404;8.566;2022-08-23T00:17:34;5.07;;;3.83;;
39242;SDS011;29823;47.404;8.566;2022-08-23T00:20:02;7.03;;;4.32;;
39242;SDS011;29823;47.404;8.566;2022-08-23T00:22:31;10.77;;;4.32;;
39242;SDS011;29823;47.404;8.566;2022-08-23T00:25:00;10.13;;;5.22;;
39242;SDS011;29823;47.404;8.566;2022-08-23T00:27:29;8.13;;;5.05;;
39242;SDS011;29823;47.404;8.566;2022-08-23T00:29:57;8.98;;;4.72;;
39242;SDS011;29823;47.404;8.566;2022-08-23T00:32:26;9.18;;;5.00;;
39242;SDS011;29823;47.404;8.566;2022-08-23T00:34:56;8.90;;;4.80;;
39242;SDS011;29823;47.404;8.566;2022-08-23T00:37:25;7.97;;;4.90;;
39242;SDS011;29823;47.404;8.566;2022-08-23T00:39:54;7.53;;;4.65;;
39242;SDS011;29823;47.404;8.566;2022-08-23T00:42:25;8.85;;;4.18;;
39242;SDS011;29823;47.404;8.566;2022-08-23T00:45:16;7.53;;;4.70;;
39242;SDS011;29823;47.404;8.566;2022-08-23T00:48:03;8.32;;;4.40;;
39242;SDS011;29823;47.404;8.566;2022-08-23T00:50:33;13.43;;;5.53;;
39242;SDS011;29823;47.404;8.566;2022-08-23T00:53:07;7.97;;;5.18;;
39242;SDS011;29823;47.404;8.566;2022-08-23T00:55:41;9.43;;;4.65;;
39242;SDS011;29823;47.404;8.566;2022-08-23T00:58:11;6.97;;;4.95;;
39242;SDS011;29823;47.404;8.566;2022-08-23T01:00:45;9.32;;;5.18;;
39242;SDS011;29823;47.404;8.566;2022-08-23T01:03:13;8.00;;;4.93;;
39242;SDS011;29823;47.404;8.566;2022-08-23T01:05:45;9.83;;;5.70;;
39242;SDS011;29823;47.404;8.566;2022-08-23T01:08:18;9.50;;;5.32;;
39242;SDS011;29823;47.404;8.566;2022-08-23T01:10:51;8.85;;;5.15;;
39242;SDS011;29823;47.404;8.566;2022-08-23T01:13:26;6.85;;;5.38;;
39242;SDS011;29823;47.404;8.566;2022-08-23T01:16:02;8.88;;;5.88;;
39242;SDS011;29823;47.404;8.566;2022-08-23T01:18:33;12.57;;;5.40;;
39242;SDS011;29823;47.404;8.566;2022-08-23T01:21:03;8.40;;;5.65;;
39242;SDS011;29823;47.404;8.566;2022-08-23T01:23:39;9.27;;;5.45;;
39242;SDS011;29823;47.404;8.566;2022-08-23T01:26:10;12.30;;;4.90;;
39242;SDS011;29823;47.404;8.566;2022-08-23T01:28:44;8.02;;;5.65;;
39242;SDS011;29823;47.404;8.566;2022-08-23T01:31:12;7.35;;;5.28;;
39242;SDS011;29823;47.404;8.566;2022-08-23T01:33:41;8.88;;;5.28;;
39242;SDS011;29823;47.404;8.566;2022-08-23T01:36:10;13.20;;;5.20;;
39242;SDS011;29823;47.404;8.566;2022-08-23T01:38:41;9.75;;;5.03;;
39242;SDS011;29823;47.404;8.566;2022-08-23T01:41:09;9.18;;;5.43;;
39242;SDS011;29823;47.404;8.566;2022-08-23T01:43:37;7.40;;;5.03;;
39242;SDS011;29823;47.404;8.566;2022-08-23T01:46:06;9.60;;;5.45;;
39242;SDS011;29823;47.404;8.566;2022-08-23T01:48:35;9.32;;;5.43;;
39242;SDS011;29823;47.404;8.566;2022-08-23T01:51:04;10.00;;;5.30;;
39242;SDS011;29823;47.404;8.566;2022-08-23T01:53:32;8.13;;;5.00;;
39242;SDS011;29823;47.404;8.566;2022-08-23T01:56:02;8.15;;;5.50;;
39242;SDS011;29823;47.404;8.566;2022-08-23T01:58:32;6.10;;;5.07;;
39242;SDS011;29823;47.404;8.566;2022-08-23T02:01:00;10.40;;;4.97;;
39242;SDS011;29823;47.404;8.566;2022-08-23T02:03:30;14.63;;;7.07;;
39242;SDS011;29823;47.404;8.566;2022-08-23T02:05:58;10.05;;;6.20;;
39242;SDS011;29823;47.404;8.566;2022-08-23T02:08:26;10.77;;;6.03;;
39242;SDS011;29823;47.404;8.566;2022-08-23T02:11:13;9.07;;;5.13;;
39242;SDS011;29823;47.404;8.566;2022-08-23T02:13:43;8.80;;;5.40;;
39242;SDS011;29823;47.404;8.566;2022-08-23T02:16:11;6.68;;;4.75;;
39242;SDS011;29823;47.404;8.566;2022-08-23T02:18:40;12.27;;;5.47;;
39242;SDS011;29823;47.404;8.566;2022-08-23T02:21:08;8.75;;;5.40;;
39242;SDS011;29823;47.404;8.566;2022-08-23T02:23:36;11.48;;;5.32;;
39242;SDS011;29823;47.404;8.566;2022-08-23T02:26:04;11.63;;;5.57;;
39242;SDS011;29823;47.404;8.566;2022-08-23T02:28:33;9.68;;;5.70;;
39242;SDS011;29823;47.404;8.566;2022-08-23T02:31:01;8.52;;;5.28;;
39242;SDS011;29823;47.404;8.566;2022-08-23T02:33:30;10.23;;;5.18;;
39242;SDS011;29823;47.404;8.566;2022-08-23T02:36:01;8.65;;;5.57;;
39242;SDS011;29823;47.404;8.566;2022-08-23T02:38:29;7.50;;;5.25;;
39242;SDS011;29823;47.404;8.566;2022-08-23T02:40:57;8.30;;;5.28;;
39242;SDS011;29823;47.404;8.566;2022-08-23T02:43:26;7.38;;;4.70;;
39242;SDS011;29823;47.404;8.566;2022-08-23T02:45:56;10.10;;;5.00;;
39242;SDS011;29823;47.404;8.566;2022-08-23T02:48:24;10.73;;;5.88;;
39242;SDS011;29823;47.404;8.566;2022-08-23T02:50:51;8.65;;;5.40;;
39242;SDS011;29823;47.404;8.566;2022-08-23T02:53:19;10.85;;;5.35;;
39242;SDS011;29823;47.404;8.566;2022-08-23T02:55:47;11.48;;;6.22;;
39242;SDS011;29823;47.404;8.566;2022-08-23T02:58:15;6.47;;;5.05;;
39242;SDS011;29823;47.404;8.566;2022-08-23T03:00:44;8.93;;;5.90;;
39242;SDS011;29823;47.404;8.566;2022-08-23T03:03:14;7.68;;;5.57;;
39242;SDS011;29823;47.404;8.566;2022-08-23T03:05:43;7.07;;;5.60;;
39242;SDS011;29823;47.404;8.566;2022-08-23T03:08:11;12.10;;;6.28;;
39242;SDS011;29823;47.404;8.566;2022-08-23T03:10:40;10.65;;;6.00;;
39242;SDS011;29823;47.404;8.566;2022-08-23T03:13:09;10.77;;;5.70;;
39242;SDS011;29823;47.404;8.566;2022-08-23T03:15:37;9.60;;;5.70;;
39242;SDS011;29823;47.404;8.566;2022-08-23T03:18:05;32.97;;;8.63;;
39242;SDS011;29823;47.404;8.566;2022-08-23T03:20:35;9.45;;;6.10;;
39242;SDS011;29823;47.404;8.566;2022-08-23T03:23:03;12.32;;;6.55;;
39242;SDS011;29823;47.404;8.566;2022-08-23T03:25:31;10.70;;;6.35;;
39242;SDS011;29823;47.404;8.566;2022-08-23T03:28:00;9.90;;;6.20;;
39242;SDS011;29823;47.404;8.566;2022-08-23T03:30:29;9.00;;;5.88;;
39242;SDS011;29823;47.404;8.566;2022-08-23T03:32:59;8.88;;;6.35;;
39242;SDS011;29823;47.404;8.566;2022-08-23T03:35:27;7.85;;;5.88;;
39242;SDS011;29823;47.404;8.566;2022-08-23T03:37:56;8.82;;;6.18;;
39242;SDS011;29823;47.404;8.566;2022-08-23T03:40:24;10.48;;;5.65;;
39242;SDS011;29823;47.404;8.566;2022-08-23T03:42:52;9.23;;;5.90;;
39242;SDS011;29823;47.404;8.566;2022-08-23T03:45:20;11.48;;;6.03;;
39242;SDS011;29823;47.404;8.566;2022-08-23T03:47:47;8.85;;;6.30;;
39242;SDS011;29823;47.404;8.566;2022-08-23T03:50:15;10.05;;;6.15;;
39242;SDS011;29823;47.404;8.566;2022-08-23T03:52:43;8.93;;;6.57;;
39242;SDS011;29823;47.404;8.566;2022-08-23T03:55:13;9.40;;;6.10;;
39242;SDS011;29823;47.404;8.566;2022-08-23T03:57:42;11.50;;;6.13;;
39242;SDS011;29823;47.404;8.566;2022-08-23T04:00:11;9.00;;;6.18;;
39242;SDS011;29823;47.404;8.566;2022-08-23T04:02:45;8.25;;;5.85;;
39242;SDS011;29823;47.404;8.566;2022-08-23T04:05:13;10.48;;;6.47;;
39242;SDS011;29823;47.404;8.566;2022-08-23T04:07:41;9.07;;;6.55;;
39242;SDS011;29823;47.404;8.566;2022-08-23T04:10:09;7.85;;;6.10;;
39242;SDS011;29823;47.404;8.566;2022-08-23T04:12:41;10.05;;;6.28;;
39242;SDS011;29823;47.404;8.566;2022-08-23T04:15:09;9.60;;;5.97;;
39242;SDS011;29823;47.404;8.566;2022-08-23T04:17:38;10.82;;;5.72;;
39242;SDS011;29823;47.404;8.566;2022-08-23T04:20:08;10.00;;;6.18;;
39242;SDS011;29823;47.404;8.566;2022-08-23T04:22:36;6.10;;;5.13;;
39242;SDS011;29823;47.404;8.566;2022-08-23T04:25:04;9.23;;;5.53;;
39242;SDS011;29823;47.404;8.566;2022-08-23T04:27:54;6.95;;;5.22;;
39242;SDS011;29823;47.404;8.566;2022-08-23T04:30:21;8.50;;;5.45;;
39242;SDS011;29823;47.404;8.566;2022-08-23T04:32:50;8.50;;;5.63;;
39242;SDS011;29823;47.404;8.566;2022-08-23T04:35:20;8.00;;;5.15;;
39242;SDS011;29823;47.404;8.566;2022-08-23T04:37:48;7.63;;;5.10;;
39242;SDS011;29823;47.404;8.566;2022-08-23T04:40:17;6.68;;;5.28;;
39242;SDS011;29823;47.404;8.566;2022-08-23T04:43:04;7.10;;;4.82;;
39242;SDS011;29823;47.404;8.566;2022-08-23T04:45:33;12.85;;;5.93;;
39242;SDS011;29823;47.404;8.566;2022-08-23T04:48:04;7.35;;;5.63;;
39242;SDS011;29823;47.404;8.566;2022-08-23T04:50:37;7.80;;;5.63;;
39242;SDS011;29823;47.404;8.566;2022-08-23T04:53:05;7.60;;;5.57;;
39242;SDS011;29823;47.404;8.566;2022-08-23T04:55:33;11.55;;;6.10;;
39242;SDS011;29823;47.404;8.566;2022-08-23T04:58:02;8.43;;;5.40;;
39242;SDS011;29823;47.404;8.566;2022-08-23T05:00:31;8.82;;;6.05;;
39242;SDS011;29823;47.404;8.566;2022-08-23T05:02:59;11.23;;;5.63;;
39242;SDS011;29823;47.404;8.566;2022-08-23T05:05:27;9.93;;;5.45;;
39242;SDS011;29823;47.404;8.566;2022-08-23T05:07:55;6.85;;;5.22;;
39242;SDS011;29823;47.404;8.566;2022-08-23T05:10:22;9.48;;;5.18;;
39242;SDS011;29823;47.404;8.566;2022-08-23T05:12:50;8.85;;;5.40;;
39242;SDS011;29823;47.404;8.566;2022-08-23T05:15:19;7.80;;;5.47;;
39242;SDS011;29823;47.404;8.566;2022-08-23T05:17:47;5.97;;;4.80;;
39242;SDS011;29823;47.404;8.566;2022-08-23T05:20:15;9.57;;;5.53;;
39242;SDS011;29823;47.404;8.566;2022-08-23T05:22:43;6.78;;;5.05;;
39242;SDS011;29823;47.404;8.566;2022-08-23T05:25:11;12.75;;;5.50;;
39242;SDS011;29823;47.404;8.566;2022-08-23T05:27:39;7.75;;;5.15;;
39242;SDS011;29823;47.404;8.566;2022-08-23T05:30:07;8.70;;;4.75;;
39242;SDS011;29823;47.404;8.566;2022-08-23T05:32:42;11.70;;;5.60;;
39242;SDS011;29823;47.404;8.566;2022-08-23T05:35:09;7.53;;;5.40;;
39242;SDS011;29823;47.404;8.566;2022-08-23T05:37:37;9.13;;;6.28;;
39242;SDS011;29823;47.404;8.566;2022-08-23T05:40:06;9.60;;;5.72;;
39242;SDS011;29823;47.404;8.566;2022-08-23T05:42:34;8.60;;;5.70;;
39242;SDS011;29823;47.404;8.566;2022-08-23T05:45:04;8.73;;;5.40;;
39242;SDS011;29823;47.404;8.566;2022-08-23T05:47:33;9.55;;;5.70;;
39242;SDS011;29823;47.404;8.566;2022-08-23T05:50:02;10.70;;;5.72;;
39242;SDS011;29823;47.404;8.566;2022-08-23T05:52:31;12.02;;;6.10;;
39242;SDS011;29823;47.404;8.566;2022-08-23T05:54:58;10.02;;;6.80;;
39242;SDS011;29823;47.404;8.566;2022-08-23T05:57:27;10.15;;;6.65;;
39242;SDS011;29823;47.404;8.566;2022-08-23T05:59:54;8.80;;;6.63;;
39242;SDS011;29823;47.404;8.566;2022-08-23T06:02:22;8.63;;;6.28;;
39242;SDS011;29823;47.404;8.566;2022-08-23T06:04:50;10.10;;;6.32;;
39242;SDS011;29823;47.404;8.566;2022-08-23T06:07:24;10.02;;;6.28;;
39242;SDS011;29823;47.404;8.566;2022-08-23T06:09:51;10.70;;;6.53;;
39242;SDS011;29823;47.404;8.566;2022-08-23T06:12:20;8.02;;;5.82;;
39242;SDS011;29823;47.404;8.566;2022-08-23T06:14:48;11.10;;;6.18;;
39242;SDS011;29823;47.404;8.566;2022-08-23T06:17:17;10.93;;;6.45;;
39242;SDS011;29823;47.404;8.566;2022-08-23T06:19:45;18.75;;;10.23;;
39242;SDS011;29823;47.404;8.566;2022-08-23T06:22:13;14.93;;;8.63;;
39242;SDS011;29823;47.404;8.566;2022-08-23T06:24:43;19.48;;;7.20;;
39242;SDS011;29823;47.404;8.566;2022-08-23T06:27:11;13.10;;;7.22;;
39242;SDS011;29823;47.404;8.566;2022-08-23T06:29:39;13.18;;;8.98;;
39242;SDS011;29823;47.404;8.566;2022-08-23T06:32:06;7.85;;;6.32;;
39242;SDS011;29823;47.404;8.566;2022-08-23T06:34:35;9.85;;;6.57;;
39242;SDS011;29823;47.404;8.566;2022-08-23T06:37:04;11.80;;;6.97;;
39242;SDS011;29823;47.404;8.566;2022-08-23T06:39:34;9.80;;;6.40;;
39242;SDS011;29823;47.404;8.566;2022-08-23T06:43:31;10.60;;;6.47;;
39242;SDS011;29823;47.404;8.566;2022-08-23T06:46:09;12.20;;;7.95;;
39242;SDS011;29823;47.404;8.566;2022-08-23T06:48:38;12.10;;;7.63;;
39242;SDS011;29823;47.404;8.566;2022-08-23T06:51:10;11.05;;;6.60;;
39242;SDS011;29823;47.404;8.566;2022-08-23T06:53:39;16.45;;;7.70;;
39242;SDS011;29823;47.404;8.566;2022-08-23T06:56:06;13.10;;;7.22;;
39242;SDS011;29823;47.404;8.566;2022-08-23T06:58:35;12.82;;;7.55;;
39242;SDS011;29823;47.404;8.566;2022-08-23T07:01:16;14.70;;;8.40;;
39242;SDS011;29823;47.404;8.566;2022-08-23T07:04:08;14.35;;;8.10;;
39242;SDS011;29823;47.404;8.566;2022-08-23T07:06:37;18.15;;;8.75;;
39242;SDS011;29823;47.404;8.566;2022-08-23T07:09:06;10.40;;;7.68;;
39242;SDS011;29823;47.404;8.566;2022-08-23T07:11:34;11.20;;;7.35;;
39242;SDS011;29823;47.404;8.566;2022-08-23T07:14:04;11.98;;;7.65;;
39242;SDS011;29823;47.404;8.566;2022-08-23T07:16:34;15.05;;;7.97;;
39242;SDS011;29823;47.404;8.566;2022-08-23T07:19:03;14.20;;;7.15;;
39242;SDS011;29823;47.404;8.566;2022-08-23T07:21:31;11.50;;;6.38;;
39242;SDS011;29823;47.404;8.566;2022-08-23T07:23:59;10.45;;;5.82;;
39242;SDS011;29823;47.404;8.566;2022-08-23T07:26:28;8.80;;;5.47;;
39242;SDS011;29823;47.404;8.566;2022-08-23T07:28:57;11.13;;;6.40;;
39242;SDS011;29823;47.404;8.566;2022-08-23T07:31:27;12.63;;;5.47;;
39242;SDS011;29823;47.404;8.566;2022-08-23T07:33:57;9.23;;;5.72;;
39242;SDS011;29823;47.404;8.566;2022-08-23T07:36:26;10.18;;;5.55;;
39242;SDS011;29823;47.404;8.566;2022-08-23T07:38:55;9.38;;;5.90;;
39242;SDS011;29823;47.404;8.566;2022-08-23T07:41:23;11.35;;;6.00;;
39242;SDS011;29823;47.404;8.566;2022-08-23T07:43:58;8.75;;;5.15;;
39242;SDS011;29823;47.404;8.566;2022-08-23T07:46:29;12.07;;;7.22;;
39242;SDS011;29823;47.404;8.566;2022-08-23T07:48:59;11.73;;;6.22;;
39242;SDS011;29823;47.404;8.566;2022-08-23T07:51:29;8.32;;;5.28;;
39242;SDS011;29823;47.404;8.566;2022-08-23T07:53:59;9.75;;;5.50;;
39242;SDS011;29823;47.404;8.566;2022-08-23T07:56:29;9.80;;;5.80;;
39242;SDS011;29823;47.404;8.566;2022-08-23T07:58:57;10.40;;;5.70;;
39242;SDS011;29823;47.404;8.566;2022-08-23T08:01:27;11.63;;;6.20;;
39242;SDS011;29823;47.404;8.566;2022-08-23T08:03:58;6.40;;;5.25;;
39242;SDS011;29823;47.404;8.566;2022-08-23T08:06:29;7.13;;;4.97;;
39242;SDS011;29823;47.404;8.566;2022-08-23T08:08:58;12.57;;;4.70;;
39242;SDS011;29823;47.404;8.566;2022-08-23T08:11:28;11.93;;;4.38;;
39242;SDS011;29823;47.404;8.566;2022-08-23T08:14:01;8.27;;;4.82;;
39242;SDS011;29823;47.404;8.566;2022-08-23T08:16:31;5.30;;;4.35;;
39242;SDS011;29823;47.404;8.566;2022-08-23T08:19:03;8.82;;;4.15;;
39242;SDS011;29823;47.404;8.566;2022-08-23T08:21:33;7.38;;;4.63;;
39242;SDS011;29823;47.404;8.566;2022-08-23T08:24:07;7.45;;;4.00;;
39242;SDS011;29823;47.404;8.566;2022-08-23T08:26:35;7.32;;;4.20;;
39242;SDS011;29823;47.404;8.566;2022-08-23T08:29:04;6.25;;;4.45;;
39242;SDS011;29823;47.404;8.566;2022-08-23T08:31:32;6.63;;;4.05;;
39242;SDS011;29823;47.404;8.566;2022-08-23T08:34:04;6.40;;;4.35;;
39242;SDS011;29823;47.404;8.566;2022-08-23T08:36:34;8.20;;;3.88;;
39242;SDS011;29823;47.404;8.566;2022-08-23T08:39:05;5.45;;;3.95;;
39242;SDS011;29823;47.404;8.566;2022-08-23T08:41:39;5.90;;;4.00;;
39242;SDS011;29823;47.404;8.566;2022-08-23T08:44:20;8.48;;;4.13;;
39242;SDS011;29823;47.404;8.566;2022-08-23T08:46:55;7.60;;;3.88;;
39242;SDS011;29823;47.404;8.566;2022-08-23T08:49:29;7.95;;;4.13;;
39242;SDS011;29823;47.404;8.566;2022-08-23T08:52:05;8.55;;;4.18;;
39242;SDS011;29823;47.404;8.566;2022-08-23T08:54:41;5.70;;;3.83;;
39242;SDS011;29823;47.404;8.566;2022-08-23T08:57:15;7.18;;;3.83;;
39242;SDS011;29823;47.404;8.566;2022-08-23T08:59:54;7.70;;;3.97;;
39242;SDS011;29823;47.404;8.566;2022-08-23T09:02:28;7.20;;;3.97;;
39242;SDS011;29823;47.404;8.566;2022-08-23T09:05:01;6.70;;;4.50;;
39242;SDS011;29823;47.404;8.566;2022-08-23T09:07:37;6.25;;;3.65;;
39242;SDS011;29823;47.404;8.566;2022-08-23T09:10:21;6.43;;;3.53;;
39242;SDS011;29823;47.404;8.566;2022-08-23T09:12:59;8.32;;;3.65;;
39242;SDS011;29823;47.404;8.566;2022-08-23T09:15:45;5.75;;;3.42;;
39242;SDS011;29823;47.404;8.566;2022-08-23T09:18:23;6.90;;;3.45;;
39242;SDS011;29823;47.404;8.566;2022-08-23T09:20:53;6.70;;;3.80;;
39242;SDS011;29823;47.404;8.566;2022-08-23T09:23:24;8.32;;;3.30;;
39242;SDS011;29823;47.404;8.566;2022-08-23T09:25:56;7.28;;;3.75;;
39242;SDS011;29823;47.404;8.566;2022-08-23T09:28:30;5.72;;;3.17;;
39242;SDS011;29823;47.404;8.566;2022-08-23T09:33:35;8.95;;;3.30;;
39242;SDS011;29823;47.404;8.566;2022-08-23T09:36:15;5.20;;;3.17;;
39242;SDS011;29823;47.404;8.566;2022-08-23T09:38:51;10.20;;;3.30;;
39242;SDS011;29823;47.404;8.566;2022-08-23T09:41:22;6.15;;;3.03;;
39242;SDS011;29823;47.404;8.566;2022-08-23T09:43:52;5.50;;;3.05;;
39242;SDS011;29823;47.404;8.566;2022-08-23T09:46:25;6.72;;;2.90;;
39242;SDS011;29823;47.404;8.566;2022-08-23T09:48:55;7.68;;;2.63;;
39242;SDS011;29823;47.404;8.566;2022-08-23T09:51:29;8.95;;;3.20;;
39242;SDS011;29823;47.404;8.566;2022-08-23T09:54:04;7.28;;;2.88;;
39242;SDS011;29823;47.404;8.566;2022-08-23T09:56:36;4.35;;;2.70;;
39242;SDS011;29823;47.404;8.566;2022-08-23T09:59:18;3.85;;;2.30;;
39242;SDS011;29823;47.404;8.566;2022-08-23T10:01:53;7.78;;;2.53;;
39242;SDS011;29823;47.404;8.566;2022-08-23T10:04:25;12.48;;;2.65;;
39242;SDS011;29823;47.404;8.566;2022-08-23T10:07:20;4.53;;;2.70;;
39242;SDS011;29823;47.404;8.566;2022-08-23T10:09:52;3.20;;;2.40;;
39242;SDS011;29823;47.404;8.566;2022-08-23T10:12:21;4.75;;;2.85;;
39242;SDS011;29823;47.404;8.566;2022-08-23T10:14:49;3.42;;;2.50;;
39242;SDS011;29823;47.404;8.566;2022-08-23T10:17:19;6.22;;;2.28;;
39242;SDS011;29823;47.404;8.566;2022-08-23T10:20:03;5.78;;;2.20;;
39242;SDS011;29823;47.404;8.566;2022-08-23T10:22:45;4.63;;;2.55;;
39242;SDS011;29823;47.404;8.566;2022-08-23T10:25:18;9.50;;;4.82;;
39242;SDS011;29823;47.404;8.566;2022-08-23T10:27:54;4.60;;;2.30;;
39242;SDS011;29823;47.404;8.566;2022-08-23T10:30:50;4.95;;;2.00;;
39242;SDS011;29823;47.404;8.566;2022-08-23T10:33:24;4.72;;;2.13;;
39242;SDS011;29823;47.404;8.566;2022-08-23T10:36:02;3.33;;;2.30;;
39242;SDS011;29823;47.404;8.566;2022-08-23T10:38:39;5.90;;;2.15;;
39242;SDS011;29823;47.404;8.566;2022-08-23T10:41:21;2.72;;;1.90;;
39242;SDS011;29823;47.404;8.566;2022-08-23T10:44:03;6.07;;;2.30;;
39242;SDS011;29823;47.404;8.566;2022-08-23T10:46:49;6.03;;;1.90;;
39242;SDS011;29823;47.404;8.566;2022-08-23T10:49:26;3.92;;;1.85;;
39242;SDS011;29823;47.404;8.566;2022-08-23T10:54:29;7.10;;;1.48;;
39242;SDS011;29823;47.404;8.566;2022-08-23T10:57:11;4.53;;;1.85;;
39242;SDS011;29823;47.404;8.566;2022-08-23T10:59:41;3.05;;;1.70;;
39242;SDS011;29823;47.404;8.566;2022-08-23T11:02:15;2.97;;;1.50;;
39242;SDS011;29823;47.404;8.566;2022-08-23T11:04:50;3.38;;;1.80;;
39242;SDS011;29823;47.404;8.566;2022-08-23T11:07:24;2.75;;;1.17;;
39242;SDS011;29823;47.404;8.566;2022-08-23T11:10:07;3.33;;;1.50;;
39242;SDS011;29823;47.404;8.566;2022-08-23T11:15:36;3.00;;;1.42;;
39242;SDS011;29823;47.404;8.566;2022-08-23T11:18:11;2.90;;;1.60;;
39242;SDS011;29823;47.404;8.566;2022-08-23T11:21:10;5.47;;;1.85;;
39242;SDS011;29823;47.404;8.566;2022-08-23T11:24:29;6.38;;;1.60;;
39242;SDS011;29823;47.404;8.566;2022-08-23T11:27:02;2.35;;;1.55;;
39242;SDS011;29823;47.404;8.566;2022-08-23T11:29:36;2.60;;;1.52;;
39242;SDS011;29823;47.404;8.566;2022-08-23T11:35:05;3.65;;;1.67;;
39242;SDS011;29823;47.404;8.566;2022-08-23T11:37:53;6.00;;;1.80;;
39242;SDS011;29823;47.404;8.566;2022-08-23T11:40:36;3.40;;;1.80;;
39242;SDS011;29823;47.404;8.566;2022-08-23T11:43:23;3.42;;;2.00;;
39242;SDS011;29823;47.404;8.566;2022-08-23T11:45:54;6.90;;;1.80;;
39242;SDS011;29823;47.404;8.566;2022-08-23T11:48:42;3.28;;;1.58;;
39242;SDS011;29823;47.404;8.566;2022-08-23T11:51:18;3.83;;;1.52;;
39242;SDS011;29823;47.404;8.566;2022-08-23T11:53:58;3.08;;;1.70;;
39242;SDS011;29823;47.404;8.566;2022-08-23T11:56:41;6.80;;;1.70;;
39242;SDS011;29823;47.404;8.566;2022-08-23T12:02:31;5.10;;;1.55;;
39242;SDS011;29823;47.404;8.566;2022-08-23T12:05:16;3.65;;;1.60;;
39242;SDS011;29823;47.404;8.566;2022-08-23T12:11:09;5.85;;;1.38;;
39242;SDS011;29823;47.404;8.566;2022-08-23T12:13:50;2.03;;;1.45;;
39242;SDS011;29823;47.404;8.566;2022-08-23T12:16:29;1.75;;;1.20;;
39242;SDS011;29823;47.404;8.566;2022-08-23T12:19:09;8.10;;;1.50;;
39242;SDS011;29823;47.404;8.566;2022-08-23T12:21:46;5.40;;;1.30;;
39242;SDS011;29823;47.404;8.566;2022-08-23T12:24:21;8.82;;;1.50;;
39242;SDS011;29823;47.404;8.566;2022-08-23T12:26:53;3.33;;;1.60;;
39242;SDS011;29823;47.404;8.566;2022-08-23T12:29:30;1.95;;;1.20;;
39242;SDS011;29823;47.404;8.566;2022-08-23T12:32:09;5.45;;;1.50;;
39242;SDS011;29823;47.404;8.566;2022-08-23T12:34:47;2.20;;;1.30;;
39242;SDS011;29823;47.404;8.566;2022-08-23T12:37:30;3.20;;;1.38;;
39242;SDS011;29823;47.404;8.566;2022-08-23T12:40:05;2.80;;;1.45;;
39242;SDS011;29823;47.404;8.566;2022-08-23T12:42:38;2.53;;;1.40;;
39242;SDS011;29823;47.404;8.566;2022-08-23T12:45:12;2.72;;;1.50;;
39242;SDS011;29823;47.404;8.566;2022-08-23T12:47:44;2.97;;;1.33;;
39242;SDS011;29823;47.404;8.566;2022-08-23T12:50:30;3.28;;;1.42;;
39242;SDS011;29823;47.404;8.566;2022-08-23T12:53:01;3.03;;;1.45;;
39242;SDS011;29823;47.404;8.566;2022-08-23T12:55:31;3.33;;;1.45;;
39242;SDS011;29823;47.404;8.566;2022-08-23T13:00:31;2.97;;;1.40;;
39242;SDS011;29823;47.404;8.566;2022-08-23T13:03:04;5.75;;;1.42;;
39242;SDS011;29823;47.404;8.566;2022-08-23T13:05:40;7.43;;;1.42;;
39242;SDS011;29823;47.404;8.566;2022-08-23T13:08:13;4.10;;;1.60;;
39242;SDS011;29823;47.404;8.566;2022-08-23T13:10:46;3.65;;;1.30;;
39242;SDS011;29823;47.404;8.566;2022-08-23T13:13:15;11.80;;;1.45;;
39242;SDS011;29823;47.404;8.566;2022-08-23T13:15:46;4.05;;;1.52;;
39242;SDS011;29823;47.404;8.566;2022-08-23T13:18:29;4.28;;;1.48;;
39242;SDS011;29823;47.404;8.566;2022-08-23T13:21:14;4.95;;;1.17;;
39242;SDS011;29823;47.404;8.566;2022-08-23T13:23:43;4.68;;;1.33;;
39242;SDS011;29823;47.404;8.566;2022-08-23T13:29:07;2.63;;;1.40;;
39242;SDS011;29823;47.404;8.566;2022-08-23T13:31:47;2.95;;;1.50;;
39242;SDS011;29823;47.404;8.566;2022-08-23T13:34:31;4.78;;;1.40;;
39242;SDS011;29823;47.404;8.566;2022-08-23T13:37:01;2.38;;;1.38;;
39242;SDS011;29823;47.404;8.566;2022-08-23T13:39:31;5.60;;;1.70;;
39242;SDS011;29823;47.404;8.566;2022-08-23T13:42:00;4.43;;;1.50;;
39242;SDS011;29823;47.404;8.566;2022-08-23T13:44:29;4.18;;;1.30;;
39242;SDS011;29823;47.404;8.566;2022-08-23T13:46:57;2.80;;;1.35;;
39242;SDS011;29823;47.404;8.566;2022-08-23T13:49:26;5.10;;;1.30;;
39242;SDS011;29823;47.404;8.566;2022-08-23T13:52:03;4.13;;;1.42;;
39242;SDS011;29823;47.404;8.566;2022-08-23T13:54:54;3.58;;;1.20;;
39242;SDS011;29823;47.404;8.566;2022-08-23T13:57:23;2.40;;;1.30;;
39242;SDS011;29823;47.404;8.566;2022-08-23T13:59:55;3.63;;;1.27;;
39242;SDS011;29823;47.404;8.566;2022-08-23T14:02:24;2.17;;;1.20;;
39242;SDS011;29823;47.404;8.566;2022-08-23T14:04:53;3.28;;;1.20;;
39242;SDS011;29823;47.404;8.566;2022-08-23T14:07:22;2.60;;;1.40;;
39242;SDS011;29823;47.404;8.566;2022-08-23T14:09:50;2.17;;;1.25;;
39242;SDS011;29823;47.404;8.566;2022-08-23T14:12:20;3.78;;;1.25;;
39242;SDS011;29823;47.404;8.566;2022-08-23T14:14:53;5.47;;;1.30;;
39242;SDS011;29823;47.404;8.566;2022-08-23T14:17:22;2.03;;;1.08;;
39242;SDS011;29823;47.404;8.566;2022-08-23T14:19:50;3.65;;;1.50;;
39242;SDS011;29823;47.404;8.566;2022-08-23T14:22:39;1.92;;;1.35;;
39242;SDS011;29823;47.404;8.566;2022-08-23T14:25:07;2.80;;;1.35;;
39242;SDS011;29823;47.404;8.566;2022-08-23T14:27:36;3.88;;;1.35;;
39242;SDS011;29823;47.404;8.566;2022-08-23T14:30:06;5.40;;;1.50;;
39242;SDS011;29823;47.404;8.566;2022-08-23T14:32:36;4.28;;;1.40;;
39242;SDS011;29823;47.404;8.566;2022-08-23T14:35:06;5.57;;;1.30;;
39242;SDS011;29823;47.404;8.566;2022-08-23T14:37:36;10.68;;;1.77;;
39242;SDS011;29823;47.404;8.566;2022-08-23T14:40:25;5.28;;;2.50;;
39242;SDS011;29823;47.404;8.566;2022-08-23T14:42:54;3.03;;;1.50;;
39242;SDS011;29823;47.404;8.566;2022-08-23T14:45:22;4.30;;;2.72;;
39242;SDS011;29823;47.404;8.566;2022-08-23T14:47:49;5.10;;;1.30;;
39242;SDS011;29823;47.404;8.566;2022-08-23T14:50:17;3.33;;;1.50;;
39242;SDS011;29823;47.404;8.566;2022-08-23T14:52:45;2.95;;;1.27;;
39242;SDS011;29823;47.404;8.566;2022-08-23T14:55:13;8.73;;;1.33;;
39242;SDS011;29823;47.404;8.566;2022-08-23T14:57:43;3.03;;;1.73;;
39242;SDS011;29823;47.404;8.566;2022-08-23T15:00:11;4.18;;;1.60;;
39242;SDS011;29823;47.404;8.566;2022-08-23T15:02:41;3.67;;;1.60;;
39242;SDS011;29823;47.404;8.566;2022-08-23T15:05:09;2.53;;;1.23;;
39242;SDS011;29823;47.404;8.566;2022-08-23T15:07:38;3.08;;;1.60;;
39242;SDS011;29823;47.404;8.566;2022-08-23T15:10:06;3.60;;;1.65;;
39242;SDS011;29823;47.404;8.566;2022-08-23T15:12:36;4.57;;;1.70;;
39242;SDS011;29823;47.404;8.566;2022-08-23T15:15:25;8.10;;;1.58;;
39242;SDS011;29823;47.404;8.566;2022-08-23T15:17:55;5.22;;;1.63;;
39242;SDS011;29823;47.404;8.566;2022-08-23T15:20:25;3.00;;;1.58;;
39242;SDS011;29823;47.404;8.566;2022-08-23T15:22:54;2.65;;;1.45;;
39242;SDS011;29823;47.404;8.566;2022-08-23T15:25:23;7.07;;;1.40;;
39242;SDS011;29823;47.404;8.566;2022-08-23T15:27:51;4.00;;;1.60;;
39242;SDS011;29823;47.404;8.566;2022-08-23T15:30:19;6.03;;;1.50;;
39242;SDS011;29823;47.404;8.566;2022-08-23T15:32:49;5.05;;;1.45;;
39242;SDS011;29823;47.404;8.566;2022-08-23T15:35:22;4.43;;;1.60;;
39242;SDS011;29823;47.404;8.566;2022-08-23T15:37:51;3.90;;;1.70;;
39242;SDS011;29823;47.404;8.566;2022-08-23T15:40:19;3.50;;;1.92;;